Station History

Weather Underground - logo

Station Historical Data
Daily Summary for March 4, 2018 Units:  English    Metric   Both
« Previous Day
Next Day »
Daily Weekly Monthly Yearly Custom
  High: Low: Average:
Temperature: 56.6 °F 34.5 °F 45.7 °F
Dew Point: 44.2 °F 33.2 °F 38 °F
Humidity: 96 % 47 % 77 %
Wind Speed: 6.9 mph 0.0 mph 1.1 mph
Wind Gust: 6.9 mph - -
Wind:- - WNW
Pressure: 30.35 in 30.17 in -
Precipitation: 0.00 in    
Historical Graphs
 
 
Tabular Data for March 4, 2018
Time Temperature Dew Point Pressure Wind Wind Speed Wind Gust Humidity Rainfall Rate (Hourly)
00:02 43.5 °F 41.0 °F 30.17 in NW 1.2 mph 1.2 mph 91 % 0.00 in
00:07 43.5 °F 41.3 °F 30.17 in Calm     92 % 0.00 in
00:12 43.5 °F 41.3 °F 30.17 in Calm     92 % 0.00 in
00:17 43.4 °F 41.2 °F 30.17 in Calm     92 % 0.00 in
00:22 43.4 °F 40.9 °F 30.18 in Calm     91 % 0.00 in
00:27 43.3 °F 40.8 °F 30.18 in Calm     91 % 0.00 in
00:32 43.2 °F 40.8 °F 30.18 in Calm     91 % 0.00 in
00:37 43.1 °F 40.7 °F 30.18 in Calm     91 % 0.00 in
00:42 42.9 °F 40.5 °F 30.18 in Calm     91 % 0.00 in
00:47 42.8 °F 40.4 °F 30.18 in Calm     91 % 0.00 in
00:52 42.6 °F 40.4 °F 30.18 in Calm     92 % 0.00 in
00:57 42.4 °F 40.2 °F 30.18 in Calm     92 % 0.00 in
01:02 42.2 °F 40.0 °F 30.18 in Calm     92 % 0.00 in
01:07 41.9 °F 39.7 °F 30.18 in Calm     92 % 0.00 in
01:13 41.6 °F 39.4 °F 30.18 in Calm     92 % 0.00 in
01:18 41.3 °F 39.2 °F 30.18 in Calm     92 % 0.00 in
01:23 40.9 °F 38.8 °F 30.18 in Calm     92 % 0.00 in
01:28 40.5 °F 38.4 °F 30.18 in Calm     92 % 0.00 in
01:33 40.0 °F 37.9 °F 30.18 in Calm     92 % 0.00 in
01:38 39.9 °F 38.0 °F 30.18 in Calm     93 % 0.00 in
01:43 39.9 °F 38.3 °F 30.18 in Calm     94 % 0.00 in
01:48 39.9 °F 38.3 °F 30.18 in Calm     94 % 0.00 in
01:53 39.7 °F 38.1 °F 30.18 in Calm     94 % 0.00 in
01:58 39.5 °F 37.9 °F 30.18 in Calm     94 % 0.00 in
02:03 39.2 °F 37.6 °F 30.18 in Calm     94 % 0.00 in
02:08 38.8 °F 37.2 °F 30.18 in Calm     94 % 0.00 in
02:13 38.5 °F 36.9 °F 30.19 in Calm     94 % 0.00 in
02:18 37.9 °F 36.1 °F 30.19 in Calm     93 % 0.00 in
02:23 37.5 °F 35.7 °F 30.19 in Calm     93 % 0.00 in
02:28 37.4 °F 35.8 °F 30.19 in Calm     94 % 0.00 in
02:33 37.3 °F 35.7 °F 30.19 in Calm     94 % 0.00 in
02:38 37.2 °F 35.6 °F 30.19 in Calm     94 % 0.00 in
02:43 37.0 °F 35.4 °F 30.19 in Calm     94 % 0.00 in
02:48 37.0 °F 35.4 °F 30.19 in Calm     94 % 0.00 in
02:53 36.9 °F 35.3 °F 30.19 in Calm     94 % 0.00 in
02:58 36.8 °F 35.2 °F 30.19 in Calm     94 % 0.00 in
03:03 36.8 °F 35.5 °F 30.20 in Calm     95 % 0.00 in
03:08 36.9 °F 35.6 °F 30.20 in Calm     95 % 0.00 in
03:13 36.9 °F 35.6 °F 30.20 in Calm     95 % 0.00 in
03:18 36.9 °F 35.6 °F 30.20 in Calm     95 % 0.00 in
03:23 37.1 °F 35.8 °F 30.20 in Calm     95 % 0.00 in
03:28 36.9 °F 35.6 °F 30.21 in Calm     95 % 0.00 in
03:33 36.7 °F 35.4 °F 30.21 in Calm     95 % 0.00 in
03:38 36.5 °F 35.2 °F 30.21 in Calm     95 % 0.00 in
03:44 36.4 °F 35.1 °F 30.21 in Calm     95 % 0.00 in
03:49 36.9 °F 35.6 °F 30.21 in Calm     95 % 0.00 in
03:53 37.3 °F 36.0 °F 30.22 in Calm     95 % 0.00 in
03:59 37.6 °F 36.6 °F 30.22 in NW 1.2 mph 1.2 mph 96 % 0.00 in
04:04 37.9 °F 36.9 °F 30.22 in Calm     96 % 0.00 in
04:09 38.0 °F 37.0 °F 30.22 in Calm     96 % 0.00 in
04:14 38.0 °F 36.7 °F 30.22 in Calm     95 % 0.00 in
04:19 38.0 °F 36.7 °F 30.22 in Calm     95 % 0.00 in
04:24 38.0 °F 36.7 °F 30.22 in Calm     95 % 0.00 in
04:29 38.0 °F 36.7 °F 30.22 in Calm     95 % 0.00 in
04:34 37.8 °F 36.5 °F 30.23 in Calm     95 % 0.00 in
04:39 37.5 °F 36.2 °F 30.23 in Calm     95 % 0.00 in
04:44 37.3 °F 35.7 °F 30.23 in Calm     94 % 0.00 in
04:49 37.3 °F 36.0 °F 30.23 in Calm     95 % 0.00 in
04:54 37.2 °F 35.9 °F 30.23 in Calm     95 % 0.00 in
04:59 37.0 °F 35.7 °F 30.24 in Calm     95 % 0.00 in
05:04 36.9 °F 35.6 °F 30.24 in Calm     95 % 0.00 in
05:09 37.1 °F 35.8 °F 30.24 in Calm     95 % 0.00 in
05:14 37.1 °F 35.8 °F 30.24 in Calm     95 % 0.00 in
05:19 36.9 °F 35.6 °F 30.24 in Calm     95 % 0.00 in
05:24 36.6 °F 35.3 °F 30.24 in Calm     95 % 0.00 in
05:29 36.4 °F 35.1 °F 30.24 in Calm     95 % 0.00 in
05:34 36.3 °F 35.0 °F 30.25 in Calm     95 % 0.00 in
05:39 36.1 °F 34.8 °F 30.25 in Calm     95 % 0.00 in
05:44 36.0 °F 34.7 °F 30.25 in Calm     95 % 0.00 in
05:49 35.9 °F 34.6 °F 30.25 in Calm     95 % 0.00 in
05:54 35.7 °F 34.4 °F 30.25 in Calm     95 % 0.00 in
05:59 35.4 °F 34.1 °F 30.25 in Calm     95 % 0.00 in
06:04 35.2 °F 33.9 °F 30.26 in Calm     95 % 0.00 in
06:09 35.4 °F 34.1 °F 30.26 in Calm     95 % 0.00 in
06:14 35.4 °F 34.1 °F 30.26 in Calm     95 % 0.00 in
06:19 35.2 °F 33.9 °F 30.26 in Calm     95 % 0.00 in
06:24 34.9 °F 33.6 °F 30.27 in Calm     95 % 0.00 in
06:29 34.9 °F 33.6 °F 30.27 in Calm     95 % 0.00 in
06:34 35.0 °F 33.7 °F 30.27 in Calm     95 % 0.00 in
06:39 35.0 °F 33.7 °F 30.27 in Calm     95 % 0.00 in
06:44 34.8 °F 33.5 °F 30.27 in Calm     95 % 0.00 in
06:49 34.7 °F 33.4 °F 30.28 in Calm     95 % 0.00 in
06:54 34.6 °F 33.3 °F 30.28 in Calm     95 % 0.00 in
06:59 34.5 °F 33.2 °F 30.28 in Calm     95 % 0.00 in
07:04 34.5 °F 33.2 °F 30.28 in Calm     95 % 0.00 in
07:09 34.8 °F 33.5 °F 30.28 in Calm     95 % 0.00 in
07:15 35.3 °F 34.0 °F 30.28 in Calm     95 % 0.00 in
07:20 35.8 °F 34.8 °F 30.28 in Calm     96 % 0.00 in
07:25 36.6 °F 35.6 °F 30.29 in Calm     96 % 0.00 in
07:30 37.5 °F 36.5 °F 30.29 in Calm     96 % 0.00 in
07:35 39.3 °F 38.3 °F 30.29 in Calm     96 % 0.00 in
07:38 40.4 °F 39.4 °F 30.29 in Calm     96 % 0.00 in
07:43 41.6 °F 40.5 °F 30.29 in Calm     96 % 0.00 in
07:48 42.9 °F 41.8 °F 30.30 in Calm     96 % 0.00 in
07:53 43.5 °F 42.4 °F 30.30 in Calm     96 % 0.00 in
07:58 44.1 °F 43.0 °F 30.30 in Calm     96 % 0.00 in
08:03 45.3 °F 44.2 °F 30.30 in Calm     96 % 0.00 in
08:08 45.3 °F 43.1 °F 30.30 in Calm     92 % 0.00 in
08:13 45.2 °F 42.7 °F 30.31 in Calm     91 % 0.00 in
08:19 45.3 °F 42.8 °F 30.31 in Calm     91 % 0.00 in
08:23 45.8 °F 42.4 °F 30.31 in WSW 1.2 mph 1.2 mph 88 % 0.00 in
08:29 46.2 °F 43.1 °F 30.31 in NW 1.0 mph   89 % 0.00 in
08:34 46.4 °F 43.3 °F 30.31 in Calm     89 % 0.00 in
08:39 46.6 °F 42.9 °F 30.31 in Calm     87 % 0.00 in
08:44 46.1 °F 41.5 °F 30.31 in Calm     84 % 0.00 in
08:49 45.6 °F 41.0 °F 30.31 in Calm     84 % 0.00 in
08:54 45.3 °F 40.7 °F 30.31 in Calm     84 % 0.00 in
08:59 45.1 °F 40.9 °F 30.31 in Calm     85 % 0.00 in
09:04 45.1 °F 41.2 °F 30.31 in Calm     86 % 0.00 in
09:09 45.1 °F 41.2 °F 30.32 in Calm     86 % 0.00 in
09:14 45.3 °F 41.7 °F 30.32 in Calm     87 % 0.00 in
09:19 46.2 °F 41.9 °F 30.32 in NNW 1.2 mph 1.2 mph 85 % 0.00 in
09:24 46.7 °F 41.8 °F 30.32 in NW 2.3 mph 2.3 mph 83 % 0.00 in
09:29 47.2 °F 42.0 °F 30.32 in NW 2.3 mph 2.3 mph 82 % 0.00 in
09:34 47.7 °F 41.2 °F 30.32 in SE 2.3 mph 2.3 mph 78 % 0.00 in
09:39 48.7 °F 42.1 °F 30.32 in ESE 1.2 mph   78 % 0.00 in
09:44 49.2 °F 42.0 °F 30.32 in WNW 1.2 mph 1.2 mph 76 % 0.00 in
09:49 49.2 °F 41.6 °F 30.32 in NW 2.3 mph 2.3 mph 75 % 0.00 in
09:54 49.1 °F 41.9 °F 30.32 in NW 1.2 mph 1.2 mph 76 % 0.00 in
09:59 49.0 °F 41.1 °F 30.33 in NW 1.2 mph 1.2 mph 74 % 0.00 in
10:04 48.9 °F 41.3 °F 30.33 in NNW 2.3 mph 2.3 mph 75 % 0.00 in
10:09 49.3 °F 41.7 °F 30.33 in Calm     75 % 0.00 in
10:14 49.7 °F 41.7 °F 30.33 in NW 3.5 mph 3.5 mph 74 % 0.00 in
10:19 49.8 °F 41.1 °F 30.33 in NW 2.3 mph 2.3 mph 72 % 0.00 in
10:24 50.2 °F 41.2 °F 30.33 in NW 2.3 mph 2.3 mph 71 % 0.00 in
10:29 50.4 °F 40.6 °F 30.33 in NW 2.0 mph 2.0 mph 69 % 0.00 in
10:34 50.5 °F 40.7 °F 30.33 in NW 1.2 mph   69 % 0.00 in
10:39 51.3 °F 42.2 °F 30.33 in WNW 3.5 mph 3.5 mph 71 % 0.00 in
10:44 51.2 °F 40.2 °F 30.33 in NW 3.5 mph 3.5 mph 66 % 0.00 in
10:49 50.8 °F 41.0 °F 30.33 in NW 1.2 mph 1.2 mph 69 % 0.00 in
10:54 51.4 °F 41.2 °F 30.33 in NNW 2.3 mph 2.3 mph 68 % 0.00 in
10:59 52.5 °F 42.6 °F 30.33 in WNW 2.0 mph 2.0 mph 69 % 0.00 in
11:04 52.4 °F 40.2 °F 30.33 in NW 3.5 mph 3.5 mph 63 % 0.00 in
11:09 51.6 °F 39.4 °F 30.33 in NW 1.2 mph 1.2 mph 63 % 0.00 in
11:14 51.2 °F 39.4 °F 30.34 in Calm     64 % 0.00 in
11:19 51.3 °F 39.5 °F 30.34 in NW 3.5 mph 3.5 mph 64 % 0.00 in
11:24 51.7 °F 39.5 °F 30.34 in NW 3.5 mph 3.5 mph 63 % 0.00 in
11:29 51.7 °F 39.5 °F 30.34 in West 2.3 mph 2.3 mph 63 % 0.00 in
11:34 52.1 °F 39.9 °F 30.34 in East 2.3 mph   63 % 0.00 in
11:39 52.7 °F 39.6 °F 30.34 in WNW 1.2 mph 1.2 mph 61 % 0.00 in
11:44 52.5 °F 39.4 °F 30.34 in NW 4.6 mph 4.6 mph 61 % 0.00 in
11:49 52.1 °F 39.5 °F 30.34 in NW 2.3 mph 2.3 mph 62 % 0.00 in
11:54 52.2 °F 39.6 °F 30.34 in NW 3.5 mph 3.5 mph 62 % 0.00 in
11:59 52.2 °F 39.6 °F 30.34 in NW 3.5 mph 3.5 mph 62 % 0.00 in
12:04 51.8 °F 38.3 °F 30.34 in NW 3.5 mph 3.5 mph 60 % 0.00 in
12:09 52.1 °F 39.1 °F 30.34 in WNW 3.5 mph 3.5 mph 61 % 0.00 in
12:14 53.0 °F 39.5 °F 30.34 in NNW 3.0 mph 3.0 mph 60 % 0.00 in
12:19 53.2 °F 37.9 °F 30.34 in NW 2.3 mph 2.3 mph 56 % 0.00 in
12:24 52.8 °F 39.3 °F 30.34 in WNW 6.9 mph 6.9 mph 60 % 0.00 in
12:29 52.2 °F 39.1 °F 30.34 in NW 3.5 mph 3.5 mph 61 % 0.00 in
12:34 51.7 °F 38.7 °F 30.34 in NNW 3.5 mph 3.5 mph 61 % 0.00 in
12:39 51.6 °F 37.7 °F 30.33 in NW 2.3 mph 2.3 mph 59 % 0.00 in
12:44 52.8 °F 39.3 °F 30.33 in NW 3.5 mph 3.5 mph 60 % 0.00 in
12:49 53.4 °F 38.5 °F 30.33 in NNW 4.0 mph 4.0 mph 57 % 0.00 in
12:54 54.0 °F 38.6 °F 30.33 in NNE 4.0 mph 4.0 mph 56 % 0.00 in
12:59 54.6 °F 37.8 °F 30.33 in NNE 2.3 mph 2.3 mph 53 % 0.00 in
13:04 55.4 °F 38.5 °F 30.33 in NNW 2.3 mph 2.3 mph 53 % 0.00 in
13:09 55.5 °F 38.6 °F 30.33 in NW 3.5 mph 3.5 mph 53 % 0.00 in
13:14 55.6 °F 38.7 °F 30.33 in NW 6.0 mph 6.0 mph 53 % 0.00 in
13:19 55.5 °F 39.6 °F 30.32 in NNW 3.5 mph 3.9 mph 55 % 0.00 in
13:24 55.5 °F 39.6 °F 30.32 in NNW 4.0 mph 4.0 mph 55 % 0.00 in
13:30 55.4 °F 39.0 °F 30.32 in NE 4.0 mph 4.0 mph 54 % 0.00 in
13:35 55.5 °F 40.0 °F 30.32 in WNW 3.5 mph 3.5 mph 56 % 0.00 in
13:40 55.5 °F 36.6 °F 30.32 in WNW 3.5 mph 3.5 mph 49 % 0.00 in
13:45 55.6 °F 37.2 °F 30.32 in WNW 3.5 mph 3.5 mph 50 % 0.00 in
13:50 55.9 °F 38.0 °F 30.32 in NW 3.5 mph 3.5 mph 51 % 0.00 in
13:55 56.1 °F 39.2 °F 30.32 in NW 2.3 mph 2.3 mph 53 % 0.00 in
14:00 55.8 °F 37.9 °F 30.31 in NW 4.0 mph 4.0 mph 51 % 0.00 in
14:05 55.6 °F 37.7 °F 30.31 in WNW 4.0 mph 4.0 mph 51 % 0.00 in
14:10 55.2 °F 37.4 °F 30.31 in NW 4.6 mph 4.6 mph 51 % 0.00 in
14:15 55.7 °F 37.3 °F 30.31 in WNW 3.5 mph 3.5 mph 50 % 0.00 in
14:20 56.2 °F 37.8 °F 30.31 in NW 3.5 mph 3.5 mph 50 % 0.00 in
14:25 56.3 °F 36.8 °F 30.30 in NW 2.3 mph 2.3 mph 48 % 0.00 in
14:30 56.6 °F 37.6 °F 30.30 in NNW 3.5 mph 3.5 mph 49 % 0.00 in
14:35 56.4 °F 36.9 °F 30.30 in NNE 2.3 mph 2.3 mph 48 % 0.00 in
14:40 56.4 °F 36.9 °F 30.30 in NNW 5.8 mph 5.8 mph 48 % 0.00 in
14:45 56.4 °F 36.9 °F 30.30 in NW 3.5 mph 3.5 mph 48 % 0.00 in
14:50 56.3 °F 36.3 °F 30.29 in ENE 2.3 mph 2.3 mph 47 % 0.00 in
14:55 56.4 °F 37.5 °F 30.29 in NW 4.6 mph 4.6 mph 49 % 0.00 in
15:00 56.4 °F 36.9 °F 30.29 in NW 2.3 mph 2.3 mph 48 % 0.00 in
15:05 56.5 °F 37.0 °F 30.29 in NNW 4.0 mph 4.0 mph 48 % 0.00 in
15:10 56.6 °F 37.6 °F 30.29 in NW 4.6 mph 4.6 mph 49 % 0.00 in
15:15 56.5 °F 36.5 °F 30.28 in NW 3.5 mph 3.5 mph 47 % 0.00 in
15:20 56.0 °F 36.0 °F 30.28 in Calm     47 % 0.00 in
15:25 56.0 °F 37.1 °F 30.28 in North 2.3 mph 2.3 mph 49 % 0.00 in
15:30 55.8 °F 36.9 °F 30.28 in NW 3.5 mph 3.5 mph 49 % 0.00 in
15:35 55.8 °F 37.4 °F 30.28 in NW 2.3 mph 2.3 mph 50 % 0.00 in
15:40 55.9 °F 37.5 °F 30.28 in NNW 4.0 mph 4.0 mph 50 % 0.00 in
15:45 55.8 °F 36.9 °F 30.28 in WNW 2.3 mph 2.3 mph 49 % 0.00 in
15:50 55.7 °F 37.3 °F 30.27 in Calm     50 % 0.00 in
15:55 55.7 °F 37.3 °F 30.27 in NW 3.5 mph 3.5 mph 50 % 0.00 in
16:00 55.8 °F 37.9 °F 30.27 in NW 3.5 mph 3.5 mph 51 % 0.00 in
16:05 55.7 °F 38.3 °F 30.27 in NW 4.0 mph 4.0 mph 52 % 0.00 in
16:10 55.8 °F 36.9 °F 30.27 in NW 3.5 mph 3.5 mph 49 % 0.00 in
16:15 55.5 °F 37.1 °F 30.27 in WNW 2.3 mph 2.3 mph 50 % 0.00 in
16:20 55.4 °F 37.6 °F 30.27 in West 2.3 mph 2.3 mph 51 % 0.00 in
16:25 55.5 °F 38.1 °F 30.27 in NW 1.2 mph 1.2 mph 52 % 0.00 in
16:30 55.6 °F 37.7 °F 30.27 in WNW 6.9 mph 6.9 mph 51 % 0.00 in
16:35 55.4 °F 37.1 °F 30.26 in NW 3.5 mph 3.5 mph 50 % 0.00 in
16:40 55.2 °F 37.4 °F 30.27 in NW 4.6 mph 4.6 mph 51 % 0.00 in
16:45 55.1 °F 37.3 °F 30.26 in NW 3.5 mph 3.5 mph 51 % 0.00 in
16:50 54.9 °F 37.1 °F 30.26 in NW 2.3 mph 2.3 mph 51 % 0.00 in
16:55 54.8 °F 37.5 °F 30.26 in NW 2.3 mph 2.3 mph 52 % 0.00 in
17:00 54.7 °F 37.9 °F 30.26 in NW 3.5 mph 3.5 mph 53 % 0.00 in
17:05 54.5 °F 37.2 °F 30.27 in NW 3.5 mph 3.5 mph 52 % 0.00 in
17:10 54.4 °F 38.1 °F 30.27 in NW 2.3 mph 2.3 mph 54 % 0.00 in
17:15 54.2 °F 37.4 °F 30.27 in NW 2.3 mph 2.3 mph 53 % 0.00 in
17:20 54.0 °F 37.7 °F 30.27 in NW 3.5 mph 3.5 mph 54 % 0.00 in
17:25 53.8 °F 38.0 °F 30.27 in WNW 2.0 mph 2.0 mph 55 % 0.00 in
17:30 53.5 °F 37.7 °F 30.27 in NW 3.5 mph 3.5 mph 55 % 0.00 in
17:35 53.2 °F 37.9 °F 30.27 in WNW 1.2 mph 1.2 mph 56 % 0.00 in
17:40 52.9 °F 37.6 °F 30.27 in WNW 2.3 mph 2.3 mph 56 % 0.00 in
17:45 52.6 °F 37.8 °F 30.27 in NW 1.2 mph 1.2 mph 57 % 0.00 in
17:50 52.2 °F 37.9 °F 30.27 in NW 1.2 mph 1.2 mph 58 % 0.00 in
17:55 51.8 °F 37.9 °F 30.27 in Calm     59 % 0.00 in
18:00 51.3 °F 38.3 °F 30.27 in Calm     61 % 0.00 in
18:05 50.9 °F 38.3 °F 30.27 in Calm     62 % 0.00 in
18:10 50.8 °F 38.2 °F 30.28 in Calm     62 % 0.00 in
18:15 50.5 °F 38.0 °F 30.28 in Calm     62 % 0.00 in
18:20 50.2 °F 37.7 °F 30.28 in WNW 1.2 mph 1.2 mph 62 % 0.00 in
18:25 50.0 °F 37.9 °F 30.28 in Calm     63 % 0.00 in
18:30 49.8 °F 37.7 °F 30.28 in Calm     63 % 0.00 in
18:35 49.6 °F 37.9 °F 30.28 in Calm     64 % 0.00 in
18:40 49.4 °F 37.7 °F 30.28 in Calm     64 % 0.00 in
18:45 49.3 °F 37.6 °F 30.28 in Calm     64 % 0.00 in
18:50 49.2 °F 37.9 °F 30.28 in Calm     65 % 0.00 in
18:55 49.2 °F 38.3 °F 30.28 in NNW 1.2 mph   66 % 0.00 in
19:00 49.1 °F 38.2 °F 30.28 in WNW 1.2 mph 1.2 mph 66 % 0.00 in
19:05 49.2 °F 37.9 °F 30.28 in Calm     65 % 0.00 in
19:10 49.2 °F 37.9 °F 30.28 in NW 1.2 mph 1.2 mph 65 % 0.00 in
19:15 49.3 °F 38.0 °F 30.28 in Calm     65 % 0.00 in
19:20 49.1 °F 38.2 °F 30.28 in Calm     66 % 0.00 in
19:25 48.8 °F 38.7 °F 30.28 in Calm     68 % 0.00 in
19:30 48.4 °F 38.7 °F 30.28 in Calm     69 % 0.00 in
19:35 48.1 °F 38.0 °F 30.27 in Calm     68 % 0.00 in
19:40 48.0 °F 38.3 °F 30.28 in Calm     69 % 0.00 in
19:45 47.5 °F 38.6 °F 30.28 in Calm     71 % 0.00 in
19:50 47.1 °F 38.5 °F 30.28 in Calm     72 % 0.00 in
19:55 46.7 °F 38.1 °F 30.28 in Calm     72 % 0.00 in
20:00 46.5 °F 38.3 °F 30.28 in Calm     73 % 0.00 in
20:06 46.7 °F 38.5 °F 30.28 in Calm     73 % 0.00 in
20:10 46.6 °F 38.4 °F 30.27 in Calm     73 % 0.00 in
20:15 46.5 °F 38.7 °F 30.27 in Calm     74 % 0.00 in
20:20 46.0 °F 38.2 °F 30.28 in Calm     74 % 0.00 in
20:26 45.6 °F 38.5 °F 30.28 in Calm     76 % 0.00 in
20:30 45.2 °F 38.4 °F 30.28 in Calm     77 % 0.00 in
20:35 44.8 °F 38.7 °F 30.28 in Calm     79 % 0.00 in
20:40 44.3 °F 38.8 °F 30.28 in Calm     81 % 0.00 in
20:45 43.9 °F 38.8 °F 30.28 in Calm     82 % 0.00 in
20:51 43.6 °F 38.8 °F 30.28 in Calm     83 % 0.00 in
20:56 43.3 °F 38.8 °F 30.28 in Calm     84 % 0.00 in
21:01 42.9 °F 38.4 °F 30.28 in Calm     84 % 0.00 in
21:06 42.5 °F 38.3 °F 30.28 in Calm     85 % 0.00 in
21:11 42.2 °F 38.0 °F 30.29 in Calm     85 % 0.00 in
21:16 41.9 °F 38.0 °F 30.29 in Calm     86 % 0.00 in
21:21 41.7 °F 37.8 °F 30.29 in Calm     86 % 0.00 in
21:26 41.6 °F 38.0 °F 30.29 in Calm     87 % 0.00 in
21:31 41.5 °F 37.6 °F 30.29 in Calm     86 % 0.00 in
21:36 41.4 °F 37.5 °F 30.30 in Calm     86 % 0.00 in
21:41 41.4 °F 37.5 °F 30.30 in Calm     86 % 0.00 in
21:46 41.2 °F 37.3 °F 30.30 in Calm     86 % 0.00 in
21:50 41.1 °F 37.2 °F 30.30 in Calm     86 % 0.00 in
21:55 41.2 °F 37.3 °F 30.30 in Calm     86 % 0.00 in
22:01 41.1 °F 37.5 °F 30.30 in NNE 1.2 mph   87 % 0.00 in
22:06 40.9 °F 37.3 °F 30.31 in Calm     87 % 0.00 in
22:11 40.8 °F 37.2 °F 30.31 in Calm     87 % 0.00 in
22:16 40.7 °F 37.1 °F 30.31 in Calm     87 % 0.00 in
22:21 40.6 °F 37.0 °F 30.32 in Calm     87 % 0.00 in
22:26 40.5 °F 37.2 °F 30.32 in Calm     88 % 0.00 in
22:31 40.3 °F 36.7 °F 30.32 in Calm     87 % 0.00 in
22:36 40.1 °F 36.8 °F 30.32 in Calm     88 % 0.00 in
22:41 40.0 °F 36.7 °F 30.32 in Calm     88 % 0.00 in
22:46 39.9 °F 36.6 °F 30.32 in Calm     88 % 0.00 in
22:51 39.8 °F 36.5 °F 30.32 in Calm     88 % 0.00 in
22:56 39.7 °F 36.4 °F 30.33 in Calm     88 % 0.00 in
23:01 39.5 °F 36.2 °F 30.33 in Calm     88 % 0.00 in
23:06 39.3 °F 36.0 °F 30.33 in Calm     88 % 0.00 in
23:11 39.5 °F 36.5 °F 30.33 in Calm     89 % 0.00 in
23:16 39.5 °F 36.5 °F 30.33 in Calm     89 % 0.00 in
23:21 39.4 °F 36.4 °F 30.34 in Calm     89 % 0.00 in
23:26 39.6 °F 36.3 °F 30.34 in Calm     88 % 0.00 in
23:31 39.6 °F 36.3 °F 30.34 in Calm     88 % 0.00 in
23:36 39.5 °F 36.5 °F 30.34 in Calm     89 % 0.00 in
23:41 39.3 °F 36.0 °F 30.34 in Calm     88 % 0.00 in
23:51 38.8 °F 35.8 °F 30.35 in Calm     89 % 0.00 in
23:56 38.9 °F 36.2 °F 30.35 in NNE 1.2 mph   90 % 0.00 in
Park Place, Exeter, Tulare County, California, USA
Compliments of Weather Underground - 2.75 mb